createdAt,value
2022-08-04T00:00:25.438Z,1.40
2022-08-04T00:03:01.122Z,1.00
2022-08-04T00:05:31.080Z,1.17
2022-08-04T00:08:14.656Z,1.48
2022-08-04T00:10:48.511Z,1.40
2022-08-04T00:13:16.654Z,1.50
2022-08-04T00:15:44.204Z,1.63
2022-08-04T00:18:15.305Z,1.33
2022-08-04T00:20:42.901Z,0.93
2022-08-04T00:23:09.740Z,1.10
2022-08-04T00:25:41.517Z,1.03
2022-08-04T00:28:08.866Z,1.10
2022-08-04T00:30:35.590Z,1.10
2022-08-04T00:33:02.511Z,1.27
2022-08-04T00:35:29.713Z,1.30
2022-08-04T00:37:57.053Z,1.83
2022-08-04T00:40:23.758Z,1.33
2022-08-04T00:43:18.449Z,1.50
2022-08-04T00:46:11.711Z,1.45
2022-08-04T00:48:49.792Z,1.15
2022-08-04T00:51:36.598Z,1.80
2022-08-04T00:54:15.217Z,1.60
2022-08-04T00:56:50.556Z,1.73
2022-08-04T00:59:44.412Z,1.63
2022-08-04T01:02:24.851Z,1.30
2022-08-04T01:05:03.567Z,1.87
2022-08-04T01:07:52.471Z,1.55
2022-08-04T01:10:33.424Z,1.60
2022-08-04T01:13:21.411Z,1.40
2022-08-04T01:15:56.431Z,1.30
2022-08-04T01:18:49.084Z,1.70
2022-08-04T01:21:16.503Z,1.60
2022-08-04T01:23:54.861Z,1.35
2022-08-04T01:26:42.787Z,1.60
2022-08-04T01:29:23.332Z,2.10
2022-08-04T01:32:03.265Z,1.70
2022-08-04T01:34:35.333Z,1.40
2022-08-04T01:37:19.328Z,1.50
2022-08-04T01:39:57.989Z,1.50
2022-08-04T01:42:31.360Z,1.38
2022-08-04T01:45:02.382Z,1.20
2022-08-04T01:47:30.815Z,1.23
2022-08-04T01:50:11.356Z,1.38
2022-08-04T01:52:39.354Z,1.63
2022-08-04T01:55:10.019Z,1.55
2022-08-04T01:57:42.664Z,1.60
2022-08-04T02:00:10.908Z,1.60
2022-08-04T02:02:37.439Z,1.42
2022-08-04T02:05:04.098Z,1.58
2022-08-04T02:08:02.098Z,1.35
2022-08-04T02:10:42.714Z,1.60
2022-08-04T02:13:12.441Z,1.58
2022-08-04T02:16:16.318Z,1.38
2022-08-04T02:19:00.193Z,1.30
2022-08-04T02:21:28.030Z,1.83
2022-08-04T02:24:14.364Z,1.67
2022-08-04T02:26:43.095Z,1.20
2022-08-04T02:29:40.576Z,1.80
2022-08-04T02:32:14.621Z,1.50
2022-08-04T02:34:41.185Z,1.60
2022-08-04T02:37:09.762Z,1.60
2022-08-04T02:39:48.767Z,1.50
2022-08-04T02:42:17.218Z,1.58
2022-08-04T02:44:49.752Z,1.52
2022-08-04T02:47:20.200Z,1.70
2022-08-04T02:49:47.729Z,2.10
2022-08-04T02:52:15.127Z,1.85
2022-08-04T02:54:43.588Z,2.63
2022-08-04T02:57:13.702Z,1.70
2022-08-04T03:00:08.251Z,1.50
2022-08-04T03:02:54.429Z,1.93
2022-08-04T03:05:28.070Z,2.33
2022-08-04T03:08:11.197Z,1.63
2022-08-04T03:10:51.077Z,2.33
2022-08-04T03:13:18.490Z,1.67
2022-08-04T03:16:14.482Z,2.10
2022-08-04T03:19:06.637Z,1.58
2022-08-04T03:21:47.167Z,2.17
2022-08-04T03:24:47.425Z,2.13
2022-08-04T03:27:42.497Z,2.03
2022-08-04T03:30:20.423Z,2.03
2022-08-04T03:33:20.046Z,1.77
2022-08-04T03:36:12.497Z,1.90
2022-08-04T03:39:01.659Z,1.60
2022-08-04T03:42:10.379Z,1.30
2022-08-04T03:44:57.397Z,1.73
2022-08-04T03:47:45.543Z,1.77
2022-08-04T03:50:41.292Z,1.50
2022-08-04T03:53:33.283Z,1.50
2022-08-04T03:56:06.645Z,1.58
2022-08-04T03:58:45.249Z,1.50
2022-08-04T04:02:01.396Z,2.00
2022-08-04T04:04:42.083Z,1.50
2022-08-04T04:07:36.244Z,1.88
2022-08-04T04:10:24.107Z,1.70
2022-08-04T04:13:17.238Z,1.20
2022-08-04T04:16:14.486Z,1.58
2022-08-04T04:19:08.319Z,1.52
2022-08-04T04:21:58.972Z,1.08
2022-08-04T04:24:40.029Z,1.80
2022-08-04T04:27:21.910Z,1.57
2022-08-04T04:30:05.609Z,1.45
2022-08-04T04:33:01.346Z,2.10
2022-08-04T04:35:27.701Z,1.75
2022-08-04T04:38:17.063Z,1.80
2022-08-04T04:41:02.939Z,2.03
2022-08-04T04:43:51.320Z,1.60
2022-08-04T04:46:30.002Z,1.52
2022-08-04T04:49:20.203Z,1.42
2022-08-04T04:51:56.913Z,1.70
2022-08-04T04:54:34.360Z,1.60
2022-08-04T04:57:17.103Z,1.48
2022-08-04T04:59:49.687Z,2.13
2022-08-04T05:02:48.556Z,1.77
2022-08-04T05:05:29.519Z,1.70
2022-08-04T05:08:45.337Z,1.53
2022-08-04T05:11:18.002Z,1.52
2022-08-04T05:14:36.355Z,2.30
2022-08-04T05:16:39.433Z,1.67
2022-08-04T05:19:24.021Z,2.20
2022-08-04T05:22:01.268Z,1.70
2022-08-04T05:24:35.100Z,1.50
2022-08-04T05:27:06.647Z,1.55
2022-08-04T05:29:37.405Z,1.58
2022-08-04T05:32:14.665Z,1.50
2022-08-04T05:34:44.534Z,1.80
2022-08-04T05:37:16.400Z,2.58
2022-08-04T05:39:47.263Z,1.67
2022-08-04T05:42:15.319Z,2.00
2022-08-04T05:44:46.361Z,1.33
2022-08-04T05:47:16.420Z,1.43
2022-08-04T05:49:44.574Z,1.52
2022-08-04T05:52:12.559Z,1.45
2022-08-04T05:54:40.199Z,1.75
2022-08-04T05:57:08.584Z,1.85
2022-08-04T05:59:38.869Z,1.83
2022-08-04T06:02:07.010Z,1.80
2022-08-04T06:04:40.357Z,1.75
2022-08-04T06:07:07.928Z,1.48
2022-08-04T06:09:34.791Z,1.52
2022-08-04T06:12:06.713Z,1.77
2022-08-04T06:14:38.170Z,1.63
2022-08-04T06:18:33.174Z,1.70
2022-08-04T06:20:00.446Z,1.77
2022-08-04T06:22:34.844Z,1.50
2022-08-04T06:25:03.870Z,1.40
2022-08-04T06:27:32.837Z,1.50
2022-08-04T06:30:01.892Z,1.77
2022-08-04T06:32:41.688Z,1.80
2022-08-04T06:35:10.033Z,1.92
2022-08-04T06:37:41.967Z,1.67
2022-08-04T06:40:29.738Z,1.77
2022-08-04T06:43:01.187Z,1.70
2022-08-04T06:45:28.470Z,1.20
2022-08-04T06:47:56.302Z,1.35
2022-08-04T06:51:27.334Z,1.00
2022-08-04T06:53:11.710Z,1.15
2022-08-04T06:55:42.897Z,1.00
2022-08-04T06:58:10.480Z,1.25
2022-08-04T07:00:42.882Z,1.40
2022-08-04T07:03:22.627Z,1.00
2022-08-04T07:05:52.675Z,1.10
2022-08-04T07:08:21.110Z,1.30
2022-08-04T07:10:48.811Z,1.42
2022-08-04T07:13:16.306Z,1.20
2022-08-04T07:19:19.561Z,1.58
2022-08-04T07:22:17.855Z,1.48
2022-08-04T07:24:35.521Z,1.48
2022-08-04T07:27:06.444Z,1.77
2022-08-04T07:29:35.525Z,1.40
2022-08-04T07:32:23.114Z,1.33
2022-08-04T07:34:50.271Z,1.50
2022-08-04T07:37:17.544Z,1.38
2022-08-04T07:39:48.245Z,1.35
2022-08-04T07:42:19.384Z,1.00
2022-08-04T07:44:47.001Z,1.00
2022-08-04T07:47:14.383Z,1.30
2022-08-04T07:49:56.012Z,1.15
2022-08-04T07:52:25.025Z,1.10
2022-08-04T07:54:52.241Z,0.87
2022-08-04T07:57:40.041Z,1.23
2022-08-04T08:00:08.313Z,1.20
2022-08-04T08:02:36.664Z,1.38
2022-08-04T08:05:04.424Z,2.10
2022-08-04T08:07:31.110Z,1.27
2022-08-04T08:09:57.706Z,1.30
2022-08-04T08:12:36.577Z,1.30
2022-08-04T08:15:13.536Z,1.10
2022-08-04T08:17:59.359Z,1.38
2022-08-04T08:20:28.942Z,1.30
2022-08-04T08:22:56.131Z,1.30
2022-08-04T08:25:22.843Z,1.30
2022-08-04T08:27:55.666Z,1.50
2022-08-04T08:30:23.971Z,2.38
2022-08-04T08:32:51.073Z,2.07
2022-08-04T08:35:18.724Z,1.10
2022-08-04T08:38:02.494Z,1.63
2022-08-04T08:40:46.724Z,1.20
2022-08-04T08:44:06.106Z,1.80
2022-08-04T08:46:49.773Z,1.83
2022-08-04T08:50:03.097Z,1.23
2022-08-04T08:52:57.441Z,1.52
2022-08-04T08:55:31.894Z,1.65
2022-08-04T08:58:12.970Z,1.75
2022-08-04T09:00:59.985Z,1.30
2022-08-04T09:03:38.432Z,1.20
2022-08-04T09:06:15.183Z,1.48
2022-08-04T09:09:04.161Z,1.60
2022-08-04T09:11:42.143Z,1.10
2022-08-04T09:14:23.970Z,0.90
2022-08-04T09:16:54.865Z,1.00
2022-08-04T09:19:45.939Z,0.98
2022-08-04T09:22:24.778Z,1.10
2022-08-04T09:24:58.755Z,1.77
2022-08-04T09:27:35.205Z,1.10
2022-08-04T09:30:06.658Z,1.05
2022-08-04T09:32:39.337Z,1.00
2022-08-04T09:35:19.612Z,0.70
2022-08-04T09:37:51.033Z,1.00
2022-08-04T09:40:31.454Z,0.90
2022-08-04T09:43:59.299Z,1.08
2022-08-04T09:46:43.824Z,0.80
2022-08-04T09:49:19.599Z,0.70
2022-08-04T09:52:04.335Z,0.70
2022-08-04T09:54:49.223Z,0.97
2022-08-04T09:57:29.901Z,0.70
2022-08-04T10:00:04.189Z,1.10
2022-08-04T10:02:35.985Z,0.90
2022-08-04T10:05:05.214Z,1.05
2022-08-04T10:08:15.215Z,1.00
2022-08-04T10:10:43.740Z,1.02
2022-08-04T10:13:20.238Z,1.00
2022-08-04T10:15:59.246Z,1.30
2022-08-04T10:18:48.408Z,1.38
2022-08-04T10:21:27.032Z,1.37
2022-08-04T10:24:07.565Z,0.90
2022-08-04T10:26:39.360Z,0.75
2022-08-04T10:29:12.755Z,0.82
2022-08-04T10:31:49.346Z,0.80
2022-08-04T10:34:22.618Z,1.03
2022-08-04T10:36:59.125Z,0.90
2022-08-04T10:39:43.250Z,1.00
2022-08-04T10:42:20.829Z,0.88
2022-08-04T10:45:10.577Z,1.00
2022-08-04T10:47:45.488Z,0.87
2022-08-04T10:50:23.531Z,1.15
2022-08-04T10:53:13.651Z,1.00
2022-08-04T10:56:05.505Z,1.35
2022-08-04T10:58:48.915Z,0.70
2022-08-04T11:02:02.894Z,0.90
2022-08-04T11:04:35.879Z,0.80
2022-08-04T11:07:02.940Z,0.93
2022-08-04T11:09:31.363Z,0.88
2022-08-04T11:12:09.974Z,1.05
2022-08-04T11:14:45.254Z,0.60
2022-08-04T11:17:19.162Z,0.88
2022-08-04T11:20:33.078Z,0.68
2022-08-04T11:23:03.045Z,0.90
2022-08-04T11:25:41.667Z,0.80
2022-08-04T11:28:18.962Z,1.07
2022-08-04T11:30:53.903Z,0.88
2022-08-04T11:33:43.605Z,0.90
2022-08-04T11:36:21.694Z,0.90
2022-08-04T11:39:03.245Z,0.90
2022-08-04T11:41:40.739Z,1.10
2022-08-04T11:44:12.931Z,0.90
2022-08-04T11:46:47.410Z,0.70
2022-08-04T11:49:29.391Z,0.75
2022-08-04T11:52:00.522Z,0.90
2022-08-04T11:54:27.953Z,0.73
2022-08-04T11:56:55.695Z,0.95
2022-08-04T11:59:24.984Z,1.00
2022-08-04T12:02:21.306Z,0.80
2022-08-04T12:04:57.158Z,1.10
2022-08-04T12:07:59.133Z,0.90
2022-08-04T12:10:41.823Z,1.23
2022-08-04T12:13:18.527Z,1.10
2022-08-04T12:15:56.223Z,1.52
2022-08-04T12:18:27.850Z,0.65
2022-08-04T12:21:00.220Z,1.33
2022-08-04T12:23:36.123Z,1.00
2022-08-04T12:26:08.278Z,0.90
2022-08-04T12:29:08.444Z,1.33
2022-08-04T12:31:34.726Z,1.30
2022-08-04T12:34:09.013Z,0.90
2022-08-04T12:36:55.591Z,1.00
2022-08-04T12:39:25.750Z,1.25
2022-08-04T12:42:02.876Z,1.30
2022-08-04T12:44:38.956Z,1.20
2022-08-04T12:47:27.841Z,0.80
2022-08-04T12:50:04.486Z,0.70
2022-08-04T12:55:31.853Z,0.73
2022-08-04T12:58:01.611Z,1.02
2022-08-04T13:00:39.728Z,1.27
2022-08-04T13:34:18.864Z,1.15
2022-08-04T13:36:46.763Z,1.50
2022-08-04T13:39:19.478Z,1.48
2022-08-04T13:41:59.034Z,1.20
2022-08-04T13:44:30.066Z,1.37
2022-08-04T13:47:01.416Z,1.13
2022-08-04T13:49:37.987Z,1.30
2022-08-04T13:52:15.043Z,1.10
2022-08-04T13:54:44.785Z,1.10
2022-08-04T13:57:23.478Z,0.83
2022-08-04T13:59:56.291Z,1.27
2022-08-04T14:02:37.779Z,1.27
2022-08-04T14:05:18.422Z,0.88
2022-08-04T14:07:49.027Z,0.90
2022-08-04T14:10:15.813Z,1.00
2022-08-04T14:12:47.214Z,0.90
2022-08-04T14:16:02.660Z,0.85
2022-08-04T14:18:26.686Z,1.08
2022-08-04T14:20:59.163Z,1.00
2022-08-04T14:23:27.384Z,1.00
2022-08-04T14:25:59.749Z,1.23
2022-08-04T14:28:47.051Z,1.10
2022-08-04T14:31:27.901Z,1.48
2022-08-04T14:34:03.723Z,1.30
2022-08-04T14:36:49.716Z,1.20
2022-08-04T14:39:40.968Z,1.50
2022-08-04T14:42:09.336Z,1.10
2022-08-04T14:44:53.337Z,1.20
2022-08-04T14:47:38.638Z,1.13
2022-08-04T14:50:05.905Z,1.00
2022-08-04T14:52:32.438Z,0.90
2022-08-04T14:54:59.035Z,0.95
2022-08-04T14:57:29.465Z,1.20
2022-08-04T14:59:59.407Z,0.75
2022-08-04T15:02:29.895Z,0.97
2022-08-04T15:04:57.657Z,0.90
2022-08-04T15:07:24.780Z,1.10
2022-08-04T15:09:51.631Z,1.60
2022-08-04T15:12:18.391Z,0.90
2022-08-04T15:14:45.392Z,0.90
2022-08-04T15:17:30.042Z,0.82
2022-08-04T15:19:57.713Z,1.15
2022-08-04T15:22:24.585Z,1.30
2022-08-04T15:24:55.078Z,0.90
2022-08-04T15:27:27.075Z,1.53
2022-08-04T15:30:00.247Z,0.95
2022-08-04T15:32:38.282Z,1.00
2022-08-04T15:35:09.871Z,0.70
2022-08-04T15:37:44.969Z,1.00
2022-08-04T15:40:18.508Z,0.90
2022-08-04T15:43:23.992Z,0.68
2022-08-04T15:46:37.200Z,0.75
2022-08-04T15:48:39.625Z,1.10
2022-08-04T15:51:15.191Z,0.77
2022-08-04T15:54:03.509Z,0.60
2022-08-04T15:56:28.495Z,0.90
2022-08-04T15:58:57.076Z,0.95
2022-08-04T16:01:24.315Z,0.98
2022-08-04T16:03:57.930Z,0.90
2022-08-04T16:06:30.479Z,0.77
2022-08-04T16:08:59.250Z,1.10
2022-08-04T16:11:31.653Z,0.90
2022-08-04T16:13:58.449Z,1.17
2022-08-04T16:16:40.949Z,1.08
2022-08-04T16:19:08.361Z,1.10
2022-08-04T16:21:47.823Z,1.58
2022-08-04T16:24:19.126Z,1.00
2022-08-04T16:26:54.902Z,0.73
2022-08-04T16:29:23.038Z,1.30
2022-08-04T16:32:16.725Z,0.80
2022-08-04T16:34:55.274Z,1.23
2022-08-04T16:37:29.187Z,1.00
2022-08-04T16:40:31.688Z,0.70
2022-08-04T16:43:05.102Z,0.68
2022-08-04T16:45:42.239Z,0.63
2022-08-04T16:48:10.882Z,1.00
2022-08-04T16:50:52.857Z,1.23
2022-08-04T16:54:03.841Z,0.90
2022-08-04T16:56:10.033Z,0.70
2022-08-04T16:58:37.803Z,0.70
2022-08-04T17:01:32.077Z,0.80
2022-08-04T17:25:51.656Z,0.73
2022-08-04T17:32:35.877Z,0.77
2022-08-04T17:35:07.218Z,0.73
2022-08-04T17:38:11.897Z,0.98
2022-08-04T17:46:29.665Z,0.60
2022-08-04T17:49:16.530Z,0.60
2022-08-04T17:52:04.432Z,0.60
2022-08-04T17:54:37.300Z,0.60
2022-08-04T17:57:20.282Z,0.67
2022-08-04T17:59:56.346Z,0.50
2022-08-04T18:02:32.361Z,0.60
2022-08-04T18:05:54.004Z,0.50
2022-08-04T18:08:37.980Z,0.70
2022-08-04T18:11:04.028Z,0.40
2022-08-04T18:13:31.324Z,0.50
2022-08-04T18:16:21.911Z,0.60
2022-08-04T18:19:15.352Z,0.47
2022-08-04T18:21:46.782Z,0.90
2022-08-04T18:24:33.857Z,0.60
2022-08-04T18:27:06.518Z,0.60
2022-08-04T18:30:14.539Z,0.50
2022-08-04T18:32:33.436Z,0.40
2022-08-04T18:35:05.752Z,0.55
2022-08-04T18:38:05.335Z,0.70
2022-08-04T18:40:30.249Z,0.68
2022-08-04T18:43:02.152Z,0.50
2022-08-04T18:48:20.415Z,1.20
2022-08-04T18:51:10.181Z,0.70
2022-08-04T18:57:05.201Z,0.60
2022-08-04T19:00:06.379Z,0.63
2022-08-04T19:03:23.228Z,0.60
2022-08-04T19:06:16.008Z,0.40
2022-08-04T19:08:45.337Z,0.60
2022-08-04T19:11:19.450Z,0.73
2022-08-04T19:14:02.168Z,0.60
2022-08-04T19:16:30.045Z,0.60
2022-08-04T19:19:00.558Z,0.90
2022-08-04T19:21:58.629Z,0.80
2022-08-04T19:24:34.057Z,0.80
2022-08-04T19:27:16.745Z,0.70
2022-08-04T19:29:43.837Z,0.88
2022-08-04T19:32:15.837Z,1.17
2022-08-04T19:34:46.022Z,1.00
2022-08-04T19:37:56.353Z,1.00
2022-08-04T19:40:02.181Z,0.80
2022-08-04T19:42:32.140Z,0.88
2022-08-04T19:44:58.671Z,0.87
2022-08-04T19:48:18.296Z,1.00
2022-08-04T19:50:13.667Z,0.73
2022-08-04T19:52:40.615Z,0.90
2022-08-04T19:55:18.614Z,0.75
2022-08-04T19:57:49.648Z,1.07
2022-08-04T20:00:17.932Z,0.73
2022-08-04T20:03:03.122Z,0.93
2022-08-04T20:05:52.906Z,0.80
2022-08-04T20:08:17.071Z,0.73
2022-08-04T20:10:51.459Z,0.70
2022-08-04T20:13:30.956Z,0.80
2022-08-04T20:16:06.297Z,0.75
2022-08-04T20:18:55.903Z,0.70
2022-08-04T20:21:54.282Z,0.85
2022-08-04T20:24:37.844Z,0.97
2022-08-04T20:27:00.046Z,1.00
2022-08-04T20:29:40.276Z,0.82
2022-08-04T20:32:09.853Z,0.73
2022-08-04T20:34:37.144Z,0.90
2022-08-04T20:37:06.259Z,1.10
2022-08-04T20:39:37.979Z,1.20
2022-08-04T20:42:04.751Z,1.27
2022-08-04T20:44:31.223Z,0.70
2022-08-04T20:46:57.776Z,0.80
2022-08-04T20:49:34.828Z,0.90
2022-08-04T20:52:12.088Z,0.80
2022-08-04T20:54:48.527Z,0.95
2022-08-04T20:57:16.750Z,0.80
2022-08-04T21:00:02.959Z,1.00
2022-08-04T21:02:29.491Z,0.83
2022-08-04T21:04:55.995Z,1.00
2022-08-04T21:07:24.673Z,0.95
2022-08-04T21:09:51.953Z,0.90
2022-08-04T21:12:28.322Z,0.90
2022-08-04T21:14:57.389Z,0.67
2022-08-04T21:17:59.075Z,0.80
2022-08-04T21:20:12.958Z,0.93
2022-08-04T21:22:40.905Z,0.85
2022-08-04T21:25:14.522Z,0.80
2022-08-04T21:27:43.484Z,0.83
2022-08-04T21:30:23.950Z,0.88
2022-08-04T21:32:53.023Z,0.82
2022-08-04T21:35:21.526Z,0.88
2022-08-04T21:38:03.153Z,0.80
2022-08-04T21:40:36.828Z,0.80
2022-08-04T21:43:05.756Z,1.00
2022-08-04T21:45:36.483Z,1.00
2022-08-04T21:48:04.788Z,0.90
2022-08-04T21:50:31.777Z,1.10
2022-08-04T21:52:59.061Z,0.80
2022-08-04T21:55:25.859Z,1.10
2022-08-04T21:58:13.422Z,1.10
2022-08-04T22:00:40.529Z,1.00
2022-08-04T22:05:56.310Z,1.00
2022-08-04T22:08:23.428Z,0.90
2022-08-04T22:10:50.366Z,1.17
2022-08-04T22:13:22.846Z,1.23
2022-08-04T22:16:05.036Z,1.10
2022-08-04T22:18:32.257Z,1.07
2022-08-04T22:21:04.090Z,1.02
2022-08-04T22:23:45.148Z,1.25
2022-08-04T22:26:14.871Z,0.93
2022-08-04T22:28:49.335Z,0.90
2022-08-04T22:31:24.361Z,0.80
2022-08-04T22:33:55.393Z,1.05
2022-08-04T22:36:22.725Z,1.48
2022-08-04T22:39:02.912Z,1.00
2022-08-04T22:41:48.543Z,1.10
2022-08-04T22:44:20.747Z,0.80
2022-08-04T22:46:48.304Z,0.93
2022-08-04T22:49:14.805Z,1.20
2022-08-04T22:51:41.285Z,1.45
2022-08-04T22:54:17.315Z,0.80
2022-08-04T22:56:45.683Z,1.00
2022-08-04T22:59:12.322Z,0.90
2022-08-04T23:02:00.765Z,1.00
2022-08-04T23:04:27.425Z,1.00
2022-08-04T23:06:54.400Z,1.10
2022-08-04T23:09:22.108Z,1.20
2022-08-04T23:12:08.669Z,1.15
2022-08-04T23:14:44.119Z,0.98
2022-08-04T23:17:13.615Z,1.00
2022-08-04T23:19:41.020Z,1.10
2022-08-04T23:22:07.865Z,1.00
2022-08-04T23:24:35.469Z,1.38
2022-08-04T23:27:02.947Z,1.05
2022-08-04T23:29:54.402Z,0.82
2022-08-04T23:32:20.253Z,1.00
2022-08-04T23:34:46.942Z,1.13
2022-08-04T23:37:13.373Z,1.05
2022-08-04T23:40:15.517Z,1.10
2022-08-04T23:42:28.720Z,1.25
2022-08-04T23:44:55.673Z,0.93
2022-08-04T23:48:16.424Z,0.90
2022-08-04T23:50:09.151Z,0.90
2022-08-04T23:52:35.946Z,1.20
2022-08-04T23:55:02.518Z,0.85
2022-08-04T23:58:05.126Z,1.27
